Time;durP1;ratioP1;P1;durP2;ratioP2;P2;SDS_P1;SDS_P2;PMS_P1;PMS_P2;Temp;Humidity;BMP_temperature;BMP_pressure;BME280_temperature;BME280_humidity;BME280_pressure;Samples;Min_cycle;Max_cycle;Signal;HPM_P1;HPM_P2
2023/01/01 00:01:14;;;;;;;50.25;25.63;;;;;;;;;;5013895;28;20120;-80
2023/01/01 00:03:40;;;;;;;37.17;21.77;;;;;;;;;;5014442;28;20473;-81
2023/01/01 00:06:10;;;;;;;48.90;24.35;;;;;;;;;;5016757;28;20034;-80
2023/01/01 00:08:36;;;;;;;54.03;25.92;;;;;;;;;;5002944;28;20496;-81
2023/01/01 00:11:03;;;;;;;36.85;19.70;;;7.90;99.90;;;;;;5007554;28;20037;-83
2023/01/01 00:13:29;;;;;;;40.88;19.67;;;;;;;;;;5001798;28;20038;-83
2023/01/01 00:15:55;;;;;;;32.03;16.38;;;;;;;;;;5005917;28;20037;-85
2023/01/01 00:18:21;;;;;;;33.15;16.50;;;;;;;;;;5003213;28;20470;-80
2023/01/01 00:20:47;;;;;;;35.15;16.83;;;;;;;;;;5006308;28;20042;-79
2023/01/01 00:23:13;;;;;;;31.10;16.95;;;;;;;;;;5006191;28;20030;-80
2023/01/01 00:25:39;;;;;;;31.13;15.43;;;;;;;;;;5008436;28;20033;-80
2023/01/01 00:28:06;;;;;;;41.97;18.50;;;;;;;;;;5001313;28;20410;-80
2023/01/01 00:30:32;;;;;;;34.20;14.93;;;;;;;;;;5010576;28;20108;-80
2023/01/01 00:32:58;;;;;;;27.02;14.05;;;;;;;;;;5006403;28;20049;-83
2023/01/01 00:35:24;;;;;;;30.98;14.85;;;7.90;99.90;;;;;;5009426;28;20036;-81
2023/01/01 00:37:50;;;;;;;28.70;15.50;;;;;;;;;;5001044;28;20038;-78
2023/01/01 00:40:17;;;;;;;24.80;13.18;;;;;;;;;;5004722;28;20080;-81
2023/01/01 00:42:43;;;;;;;21.02;11.38;;;;;;;;;;5004145;28;20436;-79
2023/01/01 00:45:09;;;;;;;23.88;10.65;;;;;;;;;;5002319;28;20038;-82
2023/01/01 00:47:35;;;;;;;22.27;10.57;;;;;;;;;;5008563;28;20034;-79
2023/01/01 00:50:01;;;;;;;26.58;11.00;;;;;;;;;;5007210;28;20159;-79
2023/01/01 00:52:27;;;;;;;18.77;8.50;;;;;;;;;;4999324;28;20136;-79
2023/01/01 00:54:53;;;;;;;15.98;9.43;;;;;;;;;;5004843;28;20689;-80
2023/01/01 00:57:19;;;;;;;17.70;8.45;;;;;;;;;;5011367;28;20038;-80
2023/01/01 00:59:45;;;;;;;18.90;8.30;;;;;;;;;;5003031;28;20037;-79
2023/01/01 01:02:11;;;;;;;12.73;6.95;;;7.30;99.90;;;;;;5008559;28;20028;-79
2023/01/01 01:04:36;;;;;;;15.15;8.27;;;7.50;99.90;;;;;;5003643;28;20050;-78
2023/01/01 01:07:02;;;;;;;13.93;6.70;;;;;;;;;;5002887;28;20030;-80
2023/01/01 01:09:28;;;;;;;13.40;6.95;;;;;;;;;;5010340;28;20130;-79
2023/01/01 01:11:54;;;;;;;13.45;6.78;;;;;;;;;;5007586;28;20053;-80
2023/01/01 01:14:20;;;;;;;16.67;7.35;;;;;;;;;;5002441;28;20030;-80
2023/01/01 01:16:46;;;;;;;14.32;6.82;;;;;;;;;;5003840;28;20040;-80
2023/01/01 01:19:17;;;;;;;18.50;7.63;;;7.80;99.90;;;;;;5004120;28;20018;-78
2023/01/01 01:21:43;;;;;;;15.45;7.80;;;;;;;;;;5006906;28;20046;-80
2023/01/01 01:24:09;;;;;;;12.30;7.30;;;;;;;;;;5004195;28;20539;-78
2023/01/01 01:26:36;;;;;;;13.43;6.03;;;;;;;;;;5006294;28;20057;-78
2023/01/01 01:29:02;;;;;;;18.17;7.28;;;;;;;;;;5001901;28;20474;-76
2023/01/01 01:31:31;;;;;;;23.75;8.68;;;7.80;99.90;;;;;;5003755;28;20545;-78
2023/01/01 01:33:57;;;;;;;28.55;10.70;;;;;;;;;;5003648;28;20045;-80
2023/01/01 01:36:24;;;;;;;16.20;7.55;;;;;;;;;;5004090;28;20030;-79
2023/01/01 01:38:50;;;;;;;20.17;8.00;;;;;;;;;;5002197;28;20605;-77
2023/01/01 01:41:18;;;;;;;18.90;7.93;;;;;;;;;;5002918;28;20041;-80
2023/01/01 01:43:55;;;;;;;12.32;5.93;;;;;;;;;;5000510;28;20040;-79
2023/01/01 01:46:36;;;;;;;13.48;6.63;;;6.90;99.90;;;;;;5000720;28;20477;-79
2023/01/01 01:49:04;;;;;;;12.63;6.15;;;;;;;;;;4998405;28;20125;-79
2023/01/01 01:51:33;;;;;;;14.05;6.53;;;;;;;;;;5006214;28;20026;-79
2023/01/01 01:54:01;;;;;;;13.77;5.95;;;;;;;;;;4994670;28;20037;-79
2023/01/01 01:56:48;;;;;;;11.32;6.50;;;;;;;;;;4999322;28;20509;-76
2023/01/01 01:59:14;;;;;;;19.02;6.65;;;;;;;;;;4999914;28;20049;-77
2023/01/01 02:01:41;;;;;;;13.60;6.78;;;;;;;;;;4998541;28;20041;-80
2023/01/01 02:04:07;;;;;;;15.90;6.05;;;;;;;;;;5002648;28;20114;-80
2023/01/01 02:06:34;;;;;;;17.58;8.35;;;;;;;;;;4998703;28;20040;-79
2023/01/01 02:09:02;;;;;;;13.63;7.05;;;;;;;;;;5001937;28;20054;-80
2023/01/01 02:11:28;;;;;;;12.73;5.85;;;;;;;;;;4999642;28;20026;-78
2023/01/01 02:13:54;;;;;;;21.60;8.05;;;;;;;;;;5002110;28;20392;-80
2023/01/01 02:16:36;;;;;;;14.00;6.85;;;;;;;;;;4996246;28;20066;-79
2023/01/01 02:19:02;;;;;;;16.65;8.30;;;;;;;;;;5000636;28;20126;-77
2023/01/01 02:21:34;;;;;;;15.43;6.90;;;7.30;99.90;;;;;;5002247;28;20239;-78
2023/01/01 02:24:18;;;;;;;17.85;7.38;;;;;;;;;;5004847;28;20045;-79
2023/01/01 02:27:05;;;;;;;13.07;6.70;;;;;;;;;;5005530;28;20049;-79
2023/01/01 02:29:35;;;;;;;13.88;6.68;;;;;;;;;;5006735;28;20026;-78
2023/01/01 02:32:03;;;;;;;13.73;7.65;;;;;;;;;;4998081;28;20036;-80
2023/01/01 02:34:33;;;;;;;18.45;6.90;;;;;;;;;;5001342;28;20030;-79
2023/01/01 02:37:00;;;;;;;14.50;6.93;;;;;;;;;;4997282;28;20108;-77
2023/01/01 02:39:28;;;;;;;15.70;7.28;;;;;;;;;;5002564;28;20132;-78
2023/01/01 02:41:55;;;;;;;13.77;6.35;;;;;;;;;;5001950;28;20027;-79
2023/01/01 02:44:22;;;;;;;17.02;6.68;;;;;;;;;;5005245;28;20030;-77
2023/01/01 02:46:48;;;;;;;16.80;7.75;;;;;;;;;;4999449;28;20069;-77
2023/01/01 02:49:14;;;;;;;20.55;8.02;;;;;;;;;;5005271;28;20030;-77
2023/01/01 02:51:52;;;;;;;16.95;7.25;;;;;;;;;;5005115;28;20030;-80
2023/01/01 02:54:21;;;;;;;14.30;6.88;;;;;;;;;;5006376;28;20026;-80
2023/01/01 02:56:48;;;;;;;16.30;7.03;;;;;;;;;;5000688;28;20081;-77
2023/01/01 03:02:37;;;;;;;10.50;6.03;;;7.30;99.90;;;;;;5002642;28;20053;-79
2023/01/01 03:05:07;;;;;;;14.98;7.35;;;;;;;;;;5008826;28;20054;-79
2023/01/01 03:07:36;;;;;;;13.93;6.80;;;;;;;;;;5007278;28;20033;-79
2023/01/01 03:10:05;;;;;;;22.15;5.15;;;;;;;;;;5002087;28;20033;-80
2023/01/01 03:12:42;;;;;;;11.15;5.85;;;;;;;;;;5010676;28;20042;-77
2023/01/01 03:15:27;;;;;;;14.20;6.68;;;;;;;;;;4998024;28;20037;-78
2023/01/01 03:17:56;;;;;;;16.00;6.85;;;;;;;;;;5004588;28;20084;-80
2023/01/01 03:20:23;;;;;;;16.98;8.23;;;;;;;;;;5007644;28;20104;-79
2023/01/01 03:22:51;;;;;;;16.67;7.22;;;;;;;;;;5008807;28;20095;-78
2023/01/01 03:25:21;;;;;;;12.20;6.55;;;;;;;;;;5004551;28;20437;-78
2023/01/01 03:27:49;;;;;;;17.88;8.27;;;;;;;;;;5009975;28;20033;-78
2023/01/01 03:30:18;;;;;;;16.15;7.47;;;6.00;99.90;;;;;;5006523;28;20467;-79
2023/01/01 03:33:02;;;;;;;15.77;8.85;;;;;;;;;;5008087;28;20033;-81
2023/01/01 03:35:31;;;;;;;14.57;7.65;;;;;;;;;;5006332;28;20650;-78
2023/01/01 03:37:59;;;;;;;20.40;9.80;;;;;;;;;;5012085;28;20034;-81
2023/01/01 03:40:25;;;;;;;22.75;7.78;;;;;;;;;;5006585;28;20042;-79
2023/01/01 03:42:53;;;;;;;20.75;8.45;;;;;;;;;;5006129;28;20084;-80
2023/01/01 03:45:20;;;;;;;19.55;8.52;;;6.70;99.90;;;;;;5006245;28;20057;-77
2023/01/01 03:47:46;;;;;;;17.27;8.32;;;;;;;;;;5007553;28;20095;-78
2023/01/01 03:50:13;;;;;;;14.93;7.20;;;;;;;;;;5012472;28;20026;-78
2023/01/01 03:52:39;;;;;;;12.10;7.35;;;;;;;;;;5007659;28;20066;-80
2023/01/01 03:55:15;;;;;;;12.95;5.95;;;6.20;99.90;;;;;;5011530;28;20026;-80
2023/01/01 03:57:50;;;;;;;16.08;5.40;;;;;;;;;;5001589;28;20534;-80
2023/01/01 04:00:21;;;;;;;11.45;5.03;;;;;;;;;;5006612;28;20038;-81
2023/01/01 04:02:47;;;;;;;11.88;5.28;;;;;;;;;;5007188;28;20034;-79
2023/01/01 04:05:13;;;;;;;16.83;6.75;;;5.70;99.90;;;;;;5006194;28;20033;-79
2023/01/01 04:07:39;;;;;;;15.68;6.63;;;5.60;99.90;;;;;;5014281;28;20121;-77
2023/01/01 04:10:15;;;;;;;15.98;7.10;;;;;;;;;;5009351;28;20385;-79
2023/01/01 04:12:42;;;;;;;14.18;6.45;;;;;;;;;;5004537;28;20441;-79
2023/01/01 04:15:08;;;;;;;17.20;8.15;;;;;;;;;;4997452;28;20014;-80
2023/01/01 04:17:34;;;;;;;11.82;6.60;;;;;;;;;;5005317;28;20050;-78
2023/01/01 04:20:00;;;;;;;14.57;6.03;;;;;;;;;;5004953;28;20084;-79
2023/01/01 04:22:26;;;;;;;20.65;7.00;;;;;;;;;;5008066;28;20597;-81
2023/01/01 04:24:52;;;;;;;14.20;6.50;;;;;;;;;;5001271;28;20550;-79
2023/01/01 04:27:18;;;;;;;12.63;6.32;;;;;;;;;;5008149;28;20383;-77
2023/01/01 04:29:44;;;;;;;8.75;4.90;;;;;;;;;;5003512;28;20409;-78
2023/01/01 04:32:10;;;;;;;9.27;5.53;;;;;;;;;;5005555;28;20041;-78
2023/01/01 04:34:36;;;;;;;8.23;4.03;;;;;;;;;;5001527;28;20113;-77
2023/01/01 04:37:02;;;;;;;7.57;4.60;;;;;;;;;;5007432;28;20034;-77
2023/01/01 04:39:28;;;;;;;6.68;4.03;;;;;;;;;;5004106;28;20484;-80
2023/01/01 04:41:54;;;;;;;8.43;3.95;;;;;;;;;;5005784;28;20659;-79
2023/01/01 04:44:19;;;;;;;7.38;4.55;;;;;;;;;;5002556;28;20311;-79
2023/01/01 04:46:45;;;;;;;14.77;5.88;;;;;;;;;;5007114;28;20030;-79
2023/01/01 04:49:11;;;;;;;9.73;4.60;;;;;;;;;;4999581;28;20030;-78
2023/01/01 04:51:37;;;;;;;9.13;4.57;;;;;;;;;;5007207;28;20026;-77
2023/01/01 04:54:03;;;;;;;10.30;4.80;;;;;;;;;;5002674;28;20092;-78
2023/01/01 04:56:29;;;;;;;11.00;4.60;;;;;;;;;;5007471;28;20025;-81
2023/01/01 04:58:57;;;;;;;10.93;5.32;;;;;;;;;;4999735;28;20103;-80
2023/01/01 05:01:24;;;;;;;11.55;5.05;;;;;;;;;;4996573;28;23459;-80
2023/01/01 05:03:50;;;;;;;9.95;4.95;;;;;;;;;;5000640;28;20021;-78
2023/01/01 05:06:16;;;;;;;9.75;4.95;;;;;;;;;;5006949;28;20075;-78
2023/01/01 05:08:44;;;;;;;11.35;4.57;;;;;;;;;;5006547;28;20101;-77
2023/01/01 05:11:19;;;;;;;8.15;4.55;;;;;;;;;;5002419;28;20037;-79
2023/01/01 05:13:46;;;;;;;8.48;4.43;;;;;;;;;;5005847;28;20018;-78
2023/01/01 05:16:13;;;;;;;11.60;5.00;;;;;;;;;;4994113;28;20405;-81
2023/01/01 05:18:40;;;;;;;6.45;3.50;;;5.30;99.90;;;;;;4999400;28;20490;-79
2023/01/01 05:21:09;;;;;;;10.25;4.43;;;5.40;99.90;;;;;;5004506;28;20042;-80
2023/01/01 05:23:35;;;;;;;6.72;4.07;;;;;;;;;;5007043;28;20030;-79
2023/01/01 05:26:08;;;;;;;7.05;3.65;;;;;;;;;;5002485;28;20041;-78
2023/01/01 05:28:34;;;;;;;9.25;4.72;;;;;;;;;;5003451;28;20022;-77
2023/01/01 05:31:04;;;;;;;8.77;3.97;;;;;;;;;;5003937;28;20065;-78
2023/01/01 05:33:30;;;;;;;8.23;4.28;;;;;;;;;;5002955;28;20093;-78
2023/01/01 05:35:56;;;;;;;9.32;4.05;;;;;;;;;;5002475;28;20106;-77
2023/01/01 05:38:21;;;;;;;7.88;3.88;;;;;;;;;;5002814;28;20025;-78
2023/01/01 05:40:47;;;;;;;7.38;4.10;;;5.40;99.90;;;;;;5010353;28;20049;-78
2023/01/01 05:43:13;;;;;;;7.72;3.55;;;;;;;;;;5002975;28;20025;-81
2023/01/01 05:45:39;;;;;;;7.38;3.95;;;;;;;;;;4998438;28;20030;-80
2023/01/01 05:48:06;;;;;;;6.47;2.63;;;;;;;;;;4993870;28;20030;-80
2023/01/01 05:50:32;;;;;;;8.85;3.97;;;;;;;;;;5002672;28;20029;-78
2023/01/01 05:52:57;;;;;;;9.68;4.20;;;;;;;;;;5002298;28;20360;-81
2023/01/01 05:55:23;;;;;;;9.50;3.03;;;;;;;;;;5009476;28;20025;-80
2023/01/01 05:57:49;;;;;;;8.02;3.95;;;;;;;;;;4998543;28;20033;-80
2023/01/01 06:00:15;;;;;;;7.40;3.58;;;;;;;;;;5001903;28;20056;-79
2023/01/01 06:02:41;;;;;;;8.73;3.58;;;;;;;;;;5004120;28;20089;-79
2023/01/01 06:05:07;;;;;;;7.90;3.47;;;;;;;;;;5007284;28;20045;-78
2023/01/01 06:07:33;;;;;;;8.38;3.17;;;;;;;;;;4997266;28;20045;-80
2023/01/01 06:09:59;;;;;;;10.43;3.88;;;;;;;;;;4997857;28;20073;-79
2023/01/01 06:12:25;;;;;;;12.63;3.47;;;;;;;;;;5006454;28;20049;-78
2023/01/01 06:14:51;;;;;;;9.57;3.13;;;;;;;;;;4998710;28;20048;-79
2023/01/01 06:17:17;;;;;;;6.55;3.05;;;;;;;;;;4996970;28;20033;-79
2023/01/01 06:19:43;;;;;;;7.97;3.00;;;;;;;;;;4999025;28;20126;-80
2023/01/01 06:22:09;;;;;;;6.90;3.47;;;;;;;;;;5009556;28;20037;-81
2023/01/01 06:24:35;;;;;;;5.72;2.70;;;;;;;;;;5001908;28;20029;-79
2023/01/01 06:27:01;;;;;;;10.88;4.53;;;;;;;;;;5010414;28;20034;-79
2023/01/01 06:29:27;;;;;;;8.32;4.10;;;;;;;;;;4998652;28;20025;-79
2023/01/01 06:31:53;;;;;;;11.13;3.60;;;;;;;;;;4998227;28;20022;-80
2023/01/01 06:34:19;;;;;;;7.32;3.13;;;;;;;;;;5002466;28;20314;-78
2023/01/01 06:36:45;;;;;;;7.82;3.40;;;;;;;;;;4996994;28;20022;-78
2023/01/01 06:39:11;;;;;;;6.00;2.78;;;;;;;;;;5006467;28;20025;-80
2023/01/01 06:41:37;;;;;;;5.18;2.78;;;;;;;;;;5006971;28;20075;-80
2023/01/01 06:44:03;;;;;;;7.28;2.70;;;;;;;;;;5004041;28;20494;-79
2023/01/01 06:46:30;;;;;;;8.18;2.78;;;;;;;;;;5001919;28;20029;-78
2023/01/01 06:48:58;;;;;;;5.68;3.03;;;;;;;;;;5008293;28;20032;-78
2023/01/01 06:51:25;;;;;;;7.25;2.95;;;;;;;;;;5013697;28;20065;-78
2023/01/01 06:53:52;;;;;;;10.07;3.92;;;;;;;;;;5006505;28;20037;-77
2023/01/01 06:56:18;;;;;;;8.93;3.60;;;;;;;;;;5009023;28;20027;-78
2023/01/01 06:58:44;;;;;;;5.47;3.22;;;;;;;;;;5008732;28;20030;-76
2023/01/01 07:01:13;;;;;;;4.82;2.78;;;5.60;99.90;;;;;;5002764;28;20048;-78
2023/01/01 07:03:39;;;;;;;9.77;4.38;;;;;;;;;;5007704;28;20062;-80
2023/01/01 07:06:05;;;;;;;19.58;2.33;;;;;;;;;;5003049;28;20062;-80
2023/01/01 07:08:31;;;;;;;7.13;2.85;;;;;;;;;;5005442;28;20494;-81
2023/01/01 07:10:57;;;;;;;16.52;3.95;;;;;;;;;;5006104;28;20076;-77
2023/01/01 07:13:24;;;;;;;10.20;3.70;;;;;;;;;;5008977;28;20030;-80
2023/01/01 07:15:50;;;;;;;10.77;3.88;;;;;;;;;;5008240;28;20018;-80
2023/01/01 07:18:16;;;;;;;7.05;3.58;;;;;;;;;;5008509;28;20030;-81
2023/01/01 07:20:42;;;;;;;7.03;3.17;;;;;;;;;;5012243;28;20034;-77
2023/01/01 07:23:11;;;;;;;10.10;3.15;;;;;;;;;;5013218;28;20030;-81
2023/01/01 07:25:37;;;;;;;7.70;2.65;;;;;;;;;;5006226;28;20453;-80
2023/01/01 07:28:03;;;;;;;4.68;2.67;;;;;;;;;;4999214;28;20080;-82
2023/01/01 07:30:29;;;;;;;4.05;2.47;;;;;;;;;;5000914;28;20659;-80
2023/01/01 07:32:55;;;;;;;4.38;2.00;;;;;;;;;;5005754;28;20422;-78
2023/01/01 07:35:22;;;;;;;5.85;3.35;;;;;;;;;;5002779;28;20050;-79
2023/01/01 07:37:48;;;;;;;5.47;2.78;;;;;;;;;;5008028;28;20038;-80
2023/01/01 07:40:14;;;;;;;7.72;2.47;;;;;;;;;;5006319;28;20044;-80
2023/01/01 07:42:39;;;;;;;7.20;2.95;;;;;;;;;;4998496;28;20030;-81
2023/01/01 07:45:06;;;;;;;5.50;2.83;;;;;;;;;;4996787;28;20555;-81
2023/01/01 07:47:32;;;;;;;6.18;2.78;;;;;;;;;;4997898;28;20530;-77
2023/01/01 07:49:58;;;;;;;4.38;2.60;;;;;;;;;;5001241;28;20058;-83
2023/01/01 07:52:24;;;;;;;4.88;2.83;;;;;;;;;;4994242;28;20022;-81
2023/01/01 07:54:50;;;;;;;6.85;3.38;;;;;;;;;;5009168;28;20633;-80
2023/01/01 07:57:16;;;;;;;4.72;2.75;;;;;;;;;;5002931;28;20608;-79
2023/01/01 07:59:42;;;;;;;8.05;3.28;;;;;;;;;;5000997;28;20038;-81
2023/01/01 08:02:10;;;;;;;5.68;3.08;;;;;;;;;;5012147;28;20025;-80
2023/01/01 08:04:35;;;;;;;5.38;2.72;;;5.60;99.90;;;;;;5013787;28;20508;-81
2023/01/01 08:07:01;;;;;;;8.00;3.28;;;;;;;;;;5014498;28;20029;-79
2023/01/01 08:09:27;;;;;;;8.05;3.03;;;;;;;;;;5000966;28;20037;-81
2023/01/01 08:11:53;;;;;;;8.00;3.35;;;;;;;;;;5007315;28;20064;-78
2023/01/01 08:14:19;;;;;;;8.23;3.55;;;;;;;;;;5001670;28;20025;-78
2023/01/01 08:16:45;;;;;;;6.78;3.10;;;;;;;;;;5009348;28;20081;-80
2023/01/01 08:19:11;;;;;;;5.50;2.80;;;;;;;;;;5003793;28;20485;-79
2023/01/01 08:21:36;;;;;;;7.78;4.10;;;5.70;99.90;;;;;;5004512;28;20057;-79
2023/01/01 08:24:02;;;;;;;7.85;3.15;;;;;;;;;;5009603;28;20034;-80
2023/01/01 08:26:30;;;;;;;5.75;3.05;;;;;;;;;;5009396;28;20114;-78
2023/01/01 08:28:56;;;;;;;8.00;3.75;;;;;;;;;;5008565;28;20149;-80
2023/01/01 08:31:23;;;;;;;8.95;4.10;;;;;;;;;;5003370;28;20482;-78
2023/01/01 08:33:48;;;;;;;6.80;3.55;;;;;;;;;;5006828;28;20041;-78
2023/01/01 08:36:15;;;;;;;8.77;3.05;;;;;;;;;;5002974;28;20026;-78
2023/01/01 08:38:41;;;;;;;6.80;3.60;;;;;;;;;;4997512;28;20036;-78
2023/01/01 08:41:07;;;;;;;6.07;3.67;;;;;;;;;;4998389;28;20556;-79
2023/01/01 08:43:33;;;;;;;6.55;3.35;;;;;;;;;;4997692;28;20026;-79
2023/01/01 08:45:59;;;;;;;6.45;3.33;;;;;;;;;;5002247;28;20438;-79
2023/01/01 08:48:25;;;;;;;8.43;3.25;;;;;;;;;;5003929;28;20055;-77
2023/01/01 08:50:54;;;;;;;9.00;3.78;;;;;;;;;;4996438;28;20085;-77
2023/01/01 08:53:20;;;;;;;4.75;2.72;;;;;;;;;;5006710;28;20088;-78
2023/01/01 08:55:57;;;;;;;9.32;3.75;;;6.40;99.90;;;;;;4997671;28;20445;-81
2023/01/01 08:58:23;;;;;;;9.48;5.13;;;;;;;;;;5002068;28;20031;-80
2023/01/01 09:00:49;;;;;;;6.40;3.70;;;7.10;99.90;;;;;;4997517;28;20069;-80
2023/01/01 09:03:15;;;;;;;10.77;4.30;;;;;;;;;;5003843;28;20072;-80
2023/01/01 09:05:44;;;;;;;6.28;3.08;;;;;;;;;;5005758;28;20037;-82
2023/01/01 09:08:11;;;;;;;7.13;3.67;;;;;;;;;;5003230;28;20573;-78
2023/01/01 09:10:37;;;;;;;14.10;5.47;;;;;;;;;;5003278;28;20160;-77
2023/01/01 09:13:03;;;;;;;9.77;5.15;;;;;;;;;;5000980;28;20034;-78
2023/01/01 09:15:29;;;;;;;12.20;4.95;;;;;;;;;;4995752;28;20027;-82
2023/01/01 09:17:55;;;;;;;12.77;6.03;;;;;;;;;;4997813;28;20026;-79
2023/01/01 09:20:21;;;;;;;15.65;6.05;;;;;;;;;;4996372;28;20077;-80
2023/01/01 09:22:47;;;;;;;11.57;6.40;;;;;;;;;;4996566;28;20037;-78
2023/01/01 09:25:13;;;;;;;8.82;5.40;;;;;;;;;;5001629;28;20029;-81
2023/01/01 09:27:39;;;;;;;12.07;5.90;;;;;;;;;;4991784;28;20022;-81
2023/01/01 09:30:05;;;;;;;13.63;5.22;;;;;;;;;;5004660;28;20402;-82
2023/01/01 09:32:31;;;;;;;14.85;7.28;;;;;;;;;;4989700;28;20148;-80
2023/01/01 09:34:59;;;;;;;14.73;7.63;;;;;;;;;;5003057;28;20038;-79
2023/01/01 09:37:25;;;;;;;16.95;7.20;;;;;;;;;;4999771;28;20397;-80
2023/01/01 09:39:51;;;;;;;18.65;9.38;;;;;;;;;;4994617;28;20037;-79
2023/01/01 09:42:23;;;;;;;21.23;9.80;;;;;;;;;;4998728;28;20053;-79
2023/01/01 09:44:58;;;;;;;20.92;10.18;;;;;;;;;;4989727;28;20367;-79
2023/01/01 09:47:27;;;;;;;20.05;9.80;;;;;;;;;;4985927;28;20038;-81
2023/01/01 09:49:55;;;;;;;20.65;9.13;;;;;;;;;;4996814;28;20427;-80
2023/01/01 09:52:21;;;;;;;15.90;8.73;;;;;;;;;;5014165;28;20034;-78
2023/01/01 09:54:54;;;;;;;14.85;7.63;;;10.40;99.90;;;;;;5012003;28;20080;-78
2023/01/01 09:57:27;;;;;;;17.42;7.95;;;10.40;99.90;;;;;;5003943;28;20084;-81
2023/01/01 09:59:53;;;;;;;11.63;6.30;;;;;;;;;;5009576;28;20410;-78
2023/01/01 10:02:25;;;;;;;9.50;5.78;;;;;;;;;;4994310;28;20022;-78
2023/01/01 10:05:02;;;;;;;12.40;5.38;;;10.80;99.90;;;;;;5000682;28;20038;-79
2023/01/01 10:07:37;;;;;;;12.75;5.22;;;;;;;;;;4996612;28;20474;-78
2023/01/01 10:10:30;;;;;;;8.40;4.65;;;;;;;;;;5006236;28;20039;-79
2023/01/01 10:13:19;;;;;;;10.80;5.45;;;;;;;;;;5004124;28;20517;-80
2023/01/01 10:15:50;;;;;;;7.55;3.97;;;;;;;;;;4996070;28;20626;-79
2023/01/01 10:18:18;;;;;;;9.32;4.25;;;;;;;;;;5003937;28;20029;-80
2023/01/01 10:20:53;;;;;;;9.23;4.22;;;11.10;99.90;;;;;;5007682;28;20045;-79
2023/01/01 10:23:23;;;;;;;7.65;3.50;;;;;;;;;;4999949;28;20645;-79
2023/01/01 10:25:49;;;;;;;7.60;4.38;;;;;;;;;;4997238;28;20636;-79
2023/01/01 10:28:21;;;;;;;5.93;2.80;;;;;;;;;;4997810;28;20034;-79
2023/01/01 10:30:47;;;;;;;3.72;2.30;;;;;;;;;;4994095;28;20057;-81
2023/01/01 10:33:13;;;;;;;6.57;2.15;;;12.10;99.90;;;;;;5007626;28;20466;-79
2023/01/01 10:35:41;;;;;;;6.05;3.08;;;;;;;;;;4997795;28;20039;-82
2023/01/01 10:38:07;;;;;;;7.45;3.10;;;;;;;;;;4999350;28;20470;-80
2023/01/01 10:40:33;;;;;;;6.05;2.45;;;;;;;;;;4999189;28;20042;-80
2023/01/01 10:43:01;;;;;;;5.43;2.33;;;11.40;99.90;;;;;;5000774;28;20418;-82
2023/01/01 10:45:35;;;;;;;4.28;2.38;;;;;;;;;;4993878;28;20042;-81
2023/01/01 10:48:16;;;;;;;8.63;1.95;;;11.50;99.90;;;;;;4996234;28;20030;-78
2023/01/01 10:50:45;;;;;;;3.80;2.08;;;;;;;;;;4995798;28;20030;-83
2023/01/01 10:53:34;;;;;;;3.20;1.63;;;11.60;99.90;;;;;;5003225;28;20041;-79
2023/01/01 10:56:02;;;;;;;3.22;1.83;;;;;;;;;;5000213;28;20030;-78
2023/01/01 10:58:46;;;;;;;3.10;1.50;;;;;;;;;;4999291;28;20401;-78
2023/01/01 11:01:32;;;;;;;4.20;2.40;;;12.80;99.90;;;;;;4993845;28;20042;-79
2023/01/01 11:04:02;;;;;;;2.92;1.35;;;12.30;99.90;;;;;;5006341;28;21679;-79
2023/01/01 11:06:39;;;;;;;5.25;1.90;;;;;;;;;;5001083;28;20021;-82
2023/01/01 11:09:21;;;;;;;6.45;1.90;;;12.80;99.90;;;;;;4992761;28;20032;-79
2023/01/01 11:11:53;;;;;;;4.88;1.50;;;12.90;99.90;;;;;;4994653;28;22588;-81
2023/01/01 11:14:26;;;;;;;3.13;1.67;;;12.90;99.90;;;;;;4988568;28;20022;-78
2023/01/01 11:16:53;;;;;;;2.40;1.30;;;;;;;;;;4998413;28;20022;-81
2023/01/01 11:19:30;;;;;;;2.30;1.23;;;;;;;;;;5005866;28;20068;-79
2023/01/01 11:21:56;;;;;;;3.08;1.30;;;13.50;99.90;;;;;;4998970;28;20128;-79
2023/01/01 11:24:26;;;;;;;4.60;1.08;;;12.80;99.90;;;;;;5006121;28;20596;-78
2023/01/01 11:27:10;;;;;;;7.50;1.35;;;13.30;99.90;;;;;;5003476;28;20180;-78
2023/01/01 11:29:36;;;;;;;0.68;0.50;;;13.50;99.90;;;;;;4995498;28;20041;-77
2023/01/01 11:32:06;;;;;;;6.00;0.98;;;;;;;;;;4989408;28;20022;-77
2023/01/01 11:34:40;;;;;;;3.45;0.82;;;;;;;;;;5002105;28;20026;-79
2023/01/01 11:37:34;;;;;;;1.50;0.60;;;13.60;99.90;;;;;;5004202;28;20108;-79
2023/01/01 11:40:02;;;;;;;3.28;0.50;;;13.60;99.90;;;;;;4993769;28;20076;-79
2023/01/01 11:42:29;;;;;;;2.40;0.75;;;;;;;;;;4995125;28;20121;-77
2023/01/01 11:44:57;;;;;;;4.82;1.38;;;;;;;;;;5004665;28;20118;-80
2023/01/01 11:47:36;;;;;;;2.08;1.10;;;14.20;99.90;;;;;;4999920;28;20026;-80
2023/01/01 11:50:07;;;;;;;3.63;0.80;;;;;;;;;;5005209;28;20041;-77
2023/01/01 11:52:41;;;;;;;1.77;0.50;;;;;;;;;;5002332;28;20051;-77
2023/01/01 11:55:41;;;;;;;5.70;1.20;;;13.60;99.90;;;;;;4997905;28;20033;-77
2023/01/01 11:58:45;;;;;;;1.55;0.65;;;14.20;99.90;;;;;;4999632;28;20054;-79
2023/01/01 12:01:10;;;;;;;;;;;;;;;;;;4991394;28;20109;-81
2023/01/01 12:03:51;;;;;;;4.53;0.77;;;14.80;99.90;;;;;;4995864;28;20059;-79
2023/01/01 12:06:26;;;;;;;2.53;0.80;;;;;;;;;;5004792;28;20490;-78
2023/01/01 12:08:58;;;;;;;2.53;0.80;;;;;;;;;;4997220;28;20049;-78
2023/01/01 12:11:37;;;;;;;1.88;0.82;;;15.30;99.90;;;;;;4996376;28;20037;-80
2023/01/01 12:14:19;;;;;;;2.60;0.63;;;15.20;99.90;;;;;;5000572;28;20026;-78
2023/01/01 12:17:01;;;;;;;1.87;1.17;;;;;;;;;;4994587;28;20033;-77
2023/01/01 12:19:27;;;;;;;5.60;0.85;;;;;;;;;;5002684;28;20329;-79
2023/01/01 12:21:54;;;;;;;4.95;1.25;;;;;;;;;;4999504;28;20596;-78
2023/01/01 12:24:21;;;;;;;2.35;0.70;;;;;;;;;;5005274;28;20022;-78
2023/01/01 12:27:27;;;;;;;1.58;0.50;;;15.40;99.90;;;;;;5000432;28;20506;-80
2023/01/01 12:30:28;;;;;;;2.28;0.70;;;15.30;99.90;;;;;;4995148;28;20036;-78
2023/01/01 12:33:02;;;;;;;3.53;0.70;;;;;;;;;;4993064;28;20133;-80
2023/01/01 12:35:31;;;;;;;5.53;0.47;;;;;;;;;;5006611;28;20767;-81
2023/01/01 12:38:15;;;;;;;5.70;1.05;;;;;;;;;;5008631;28;20499;-81
2023/01/01 12:41:15;;;;;;;2.15;0.90;;;15.80;99.90;;;;;;5006959;28;20640;-81
2023/01/01 12:44:17;;;;;;;2.65;0.98;;;15.40;99.90;;;;;;5003550;28;20026;-80
2023/01/01 12:47:06;;;;;;;4.40;0.60;;;16.10;99.90;;;;;;5006198;28;20098;-80
2023/01/01 12:49:45;;;;;;;3.70;0.50;;;;;;;;;;5013592;28;20033;-82
2023/01/01 12:52:44;;;;;;;1.95;0.90;;;15.10;99.90;;;;;;5007150;28;20022;-80
2023/01/01 12:55:28;;;;;;;4.25;1.05;;;16.60;99.90;;;;;;5009796;28;20112;-79
2023/01/01 12:58:06;;;;;;;5.70;0.65;;;15.30;99.90;;;;;;5003211;28;20038;-83
2023/01/01 13:00:36;;;;;;;5.60;0.50;;;16.20;99.90;;;;;;5001026;28;20134;-79
2023/01/01 13:03:18;;;;;;;1.80;0.65;;;16.30;99.90;;;;;;5009778;28;20506;-82
2023/01/01 13:05:47;;;;;;;3.60;1.20;;;;;;;;;;5011573;28;21212;-80
2023/01/01 13:08:13;;;;;;;3.83;1.08;;;;;;;;;;5006786;28;20028;-79
2023/01/01 13:10:42;;;;;;;2.33;0.50;;;15.90;99.90;;;;;;5011566;28;20018;-80
2023/01/01 13:13:10;;;;;;;4.07;0.70;;;16.10;99.90;;;;;;4996805;28;20097;-78
2023/01/01 13:15:36;;;;;;;3.70;0.90;;;;;;;;;;5000492;28;20061;-81
2023/01/01 13:18:24;;;;;;;0.68;0.28;;;14.90;99.90;;;;;;5004145;28;20033;-79
2023/01/01 13:20:52;;;;;;;10.70;1.15;;;15.40;99.90;;;;;;5016824;28;20038;-81
2023/01/01 13:23:33;;;;;;;6.78;1.08;;;;;;;;;;5011204;28;20049;-79
2023/01/01 13:26:17;;;;;;;3.35;0.43;;;15.30;99.90;;;;;;5015990;28;20038;-78
2023/01/01 13:29:12;;;;;;;2.22;0.93;;;;;;;;;;5009704;28;20030;-80
2023/01/01 13:31:38;;;;;;;1.98;0.70;;;;;;;;;;5005510;28;20038;-79
2023/01/01 13:34:29;;;;;;;8.73;1.00;;;15.30;99.90;;;;;;5006349;28;20445;-80
2023/01/01 13:37:21;;;;;;;4.60;1.55;;;;;;;;;;5012284;28;20040;-82
2023/01/01 13:39:54;;;;;;;1.83;0.90;;;15.30;99.90;;;;;;5002594;28;20502;-80
2023/01/01 13:42:51;;;;;;;3.60;0.85;;;15.40;99.90;;;;;;5010687;28;20022;-82
2023/01/01 13:45:25;;;;;;;2.53;1.00;;;15.80;99.90;;;;;;5009046;28;20215;-80
2023/01/01 13:47:53;;;;;;;1.13;0.55;;;15.30;99.90;;;;;;5011346;28;20030;-81
2023/01/01 13:50:43;;;;;;;6.13;0.75;;;14.80;99.90;;;;;;5006763;28;20497;-80
2023/01/01 13:53:43;;;;;;;3.17;0.80;;;15.30;99.90;;;;;;5008034;28;20038;-79
2023/01/01 13:56:20;;;;;;;7.55;0.55;;;15.10;99.90;;;;;;5015539;28;20037;-80
2023/01/01 13:58:59;;;;;;;4.78;1.23;;;15.80;99.90;;;;;;5009175;28;20259;-81
2023/01/01 14:01:49;;;;;;;0.82;0.38;;;14.60;99.90;;;;;;5006135;28;20037;-80
2023/01/01 14:04:30;;;;;;;2.03;1.33;;;14.90;99.90;;;;;;5010324;28;20037;-78
2023/01/01 14:06:59;;;;;;;2.20;0.70;;;15.00;99.90;;;;;;5008140;28;20117;-79
2023/01/01 14:09:25;;;;;;;2.15;0.70;;;;;;;;;;5010187;28;20050;-78
2023/01/01 14:11:51;;;;;;;2.67;0.80;;;;;;;;;;5007718;28;20038;-82
2023/01/01 14:14:27;;;;;;;2.80;0.65;;;14.70;99.90;;;;;;5009428;28;20026;-82
2023/01/01 14:16:56;;;;;;;4.97;1.08;;;15.30;99.90;;;;;;5004722;28;20022;-81
2023/01/01 14:19:22;;;;;;;4.57;0.95;;;;;;;;;;5011337;28;20030;-78
2023/01/01 14:21:49;;;;;;;3.58;0.93;;;;;;;;;;5009234;28;20472;-79
2023/01/01 14:24:18;;;;;;;1.55;0.65;;;14.80;99.90;;;;;;5012959;28;20030;-81
2023/01/01 14:26:44;;;;;;;5.85;0.90;;;;;;;;;;5014556;28;20454;-81
2023/01/01 14:29:15;;;;;;;3.53;0.95;;;;;;;;;;5005170;28;20033;-81